sensor_id;sensor_type;location;lat;lon;timestamp;P1;durP1;ratioP1;P2;durP2;ratioP2
35462;SDS011;21578;47.892;9.970;2022-10-31T00:04:12;16.20;;;9.70;;
35462;SDS011;21578;47.892;9.970;2022-10-31T00:08:59;12.90;;;7.23;;
35462;SDS011;21578;47.892;9.970;2022-10-31T00:13:48;8.50;;;6.30;;
35462;SDS011;21578;47.892;9.970;2022-10-31T00:18:36;13.53;;;5.90;;
35462;SDS011;21578;47.892;9.970;2022-10-31T00:23:23;9.63;;;6.00;;
35462;SDS011;21578;47.892;9.970;2022-10-31T00:28:10;7.83;;;5.67;;
35462;SDS011;21578;47.892;9.970;2022-10-31T00:32:58;11.20;;;6.10;;
35462;SDS011;21578;47.892;9.970;2022-10-31T00:37:46;9.73;;;5.17;;
35462;SDS011;21578;47.892;9.970;2022-10-31T00:42:34;10.37;;;5.57;;
35462;SDS011;21578;47.892;9.970;2022-10-31T00:47:21;14.13;;;5.57;;
35462;SDS011;21578;47.892;9.970;2022-10-31T00:52:08;11.87;;;5.77;;
35462;SDS011;21578;47.892;9.970;2022-10-31T00:56:56;13.80;;;6.47;;
35462;SDS011;21578;47.892;9.970;2022-10-31T01:01:43;11.50;;;5.80;;
35462;SDS011;21578;47.892;9.970;2022-10-31T01:06:30;11.67;;;6.30;;
35462;SDS011;21578;47.892;9.970;2022-10-31T01:11:18;14.73;;;6.00;;
35462;SDS011;21578;47.892;9.970;2022-10-31T01:16:08;12.20;;;5.97;;
35462;SDS011;21578;47.892;9.970;2022-10-31T01:20:58;8.67;;;5.80;;
35462;SDS011;21578;47.892;9.970;2022-10-31T01:25:46;9.13;;;5.40;;
35462;SDS011;21578;47.892;9.970;2022-10-31T01:30:33;15.07;;;6.10;;
35462;SDS011;21578;47.892;9.970;2022-10-31T01:35:21;12.87;;;5.93;;
35462;SDS011;21578;47.892;9.970;2022-10-31T01:40:09;11.37;;;5.50;;
35462;SDS011;21578;47.892;9.970;2022-10-31T01:44:58;14.10;;;6.90;;
35462;SDS011;21578;47.892;9.970;2022-10-31T01:49:46;14.70;;;7.90;;
35462;SDS011;21578;47.892;9.970;2022-10-31T01:54:39;15.87;;;8.73;;
35462;SDS011;21578;47.892;9.970;2022-10-31T01:59:30;9.77;;;6.40;;
35462;SDS011;21578;47.892;9.970;2022-10-31T02:04:20;10.90;;;5.73;;
35462;SDS011;21578;47.892;9.970;2022-10-31T02:09:11;10.87;;;5.83;;
35462;SDS011;21578;47.892;9.970;2022-10-31T02:14:00;10.07;;;6.20;;
35462;SDS011;21578;47.892;9.970;2022-10-31T02:18:48;10.53;;;6.40;;
35462;SDS011;21578;47.892;9.970;2022-10-31T02:29:16;11.43;;;6.23;;
35462;SDS011;21578;47.892;9.970;2022-10-31T02:34:31;14.77;;;7.10;;
35462;SDS011;21578;47.892;9.970;2022-10-31T02:39:23;9.40;;;5.60;;
35462;SDS011;21578;47.892;9.970;2022-10-31T02:44:15;8.73;;;5.60;;
35462;SDS011;21578;47.892;9.970;2022-10-31T02:49:07;13.67;;;7.50;;
35462;SDS011;21578;47.892;9.970;2022-10-31T02:53:59;14.70;;;7.30;;
35462;SDS011;21578;47.892;9.970;2022-10-31T02:58:47;78.40;;;42.70;;
35462;SDS011;21578;47.892;9.970;2022-10-31T03:03:40;41.33;;;25.10;;
35462;SDS011;21578;47.892;9.970;2022-10-31T03:08:35;47.50;;;27.53;;
35462;SDS011;21578;47.892;9.970;2022-10-31T03:13:32;27.63;;;14.13;;
35462;SDS011;21578;47.892;9.970;2022-10-31T03:18:26;11.80;;;6.13;;
35462;SDS011;21578;47.892;9.970;2022-10-31T03:23:17;9.67;;;4.50;;
35462;SDS011;21578;47.892;9.970;2022-10-31T03:28:05;9.33;;;4.13;;
35462;SDS011;21578;47.892;9.970;2022-10-31T03:32:56;8.00;;;3.57;;
35462;SDS011;21578;47.892;9.970;2022-10-31T03:37:46;11.43;;;3.50;;
35462;SDS011;21578;47.892;9.970;2022-10-31T03:42:34;11.83;;;4.00;;
35462;SDS011;21578;47.892;9.970;2022-10-31T03:47:25;8.27;;;3.87;;
35462;SDS011;21578;47.892;9.970;2022-10-31T03:52:18;6.63;;;3.63;;
35462;SDS011;21578;47.892;9.970;2022-10-31T03:57:13;6.47;;;4.40;;
35462;SDS011;21578;47.892;9.970;2022-10-31T04:02:05;10.60;;;5.43;;
35462;SDS011;21578;47.892;9.970;2022-10-31T04:06:54;8.67;;;5.10;;
35462;SDS011;21578;47.892;9.970;2022-10-31T04:11:45;10.07;;;4.63;;
35462;SDS011;21578;47.892;9.970;2022-10-31T04:16:35;7.10;;;4.20;;
35462;SDS011;21578;47.892;9.970;2022-10-31T04:21:26;9.73;;;4.27;;
35462;SDS011;21578;47.892;9.970;2022-10-31T04:26:14;10.20;;;4.23;;
35462;SDS011;21578;47.892;9.970;2022-10-31T04:31:02;8.67;;;4.70;;
35462;SDS011;21578;47.892;9.970;2022-10-31T04:35:49;7.87;;;4.57;;
35462;SDS011;21578;47.892;9.970;2022-10-31T04:40:36;10.10;;;4.70;;
35462;SDS011;21578;47.892;9.970;2022-10-31T04:45:23;9.70;;;5.17;;
35462;SDS011;21578;47.892;9.970;2022-10-31T04:50:11;11.13;;;4.70;;
35462;SDS011;21578;47.892;9.970;2022-10-31T04:54:58;6.80;;;4.60;;
35462;SDS011;21578;47.892;9.970;2022-10-31T04:59:45;12.23;;;5.07;;
35462;SDS011;21578;47.892;9.970;2022-10-31T05:04:32;10.73;;;4.90;;
35462;SDS011;21578;47.892;9.970;2022-10-31T05:09:20;12.60;;;4.60;;
35462;SDS011;21578;47.892;9.970;2022-10-31T05:14:07;7.93;;;4.33;;
35462;SDS011;21578;47.892;9.970;2022-10-31T05:18:54;10.33;;;4.97;;
35462;SDS011;21578;47.892;9.970;2022-10-31T05:23:41;7.20;;;4.23;;
35462;SDS011;21578;47.892;9.970;2022-10-31T05:28:29;7.67;;;4.37;;
35462;SDS011;21578;47.892;9.970;2022-10-31T05:33:16;8.73;;;4.43;;
35462;SDS011;21578;47.892;9.970;2022-10-31T05:38:03;7.70;;;4.50;;
35462;SDS011;21578;47.892;9.970;2022-10-31T05:42:50;10.17;;;5.10;;
35462;SDS011;21578;47.892;9.970;2022-10-31T05:47:40;12.23;;;5.03;;
35462;SDS011;21578;47.892;9.970;2022-10-31T05:52:27;9.07;;;4.37;;
35462;SDS011;21578;47.892;9.970;2022-10-31T05:57:14;10.80;;;4.50;;
35462;SDS011;21578;47.892;9.970;2022-10-31T06:02:00;10.37;;;4.10;;
35462;SDS011;21578;47.892;9.970;2022-10-31T06:06:49;9.10;;;4.03;;
35462;SDS011;21578;47.892;9.970;2022-10-31T06:11:36;8.13;;;3.90;;
35462;SDS011;21578;47.892;9.970;2022-10-31T06:16:23;9.50;;;3.97;;
35462;SDS011;21578;47.892;9.970;2022-10-31T06:21:09;4.17;;;3.33;;
35462;SDS011;21578;47.892;9.970;2022-10-31T06:25:58;8.00;;;3.97;;
35462;SDS011;21578;47.892;9.970;2022-10-31T06:30:45;8.23;;;3.53;;
35462;SDS011;21578;47.892;9.970;2022-10-31T06:35:32;7.50;;;3.80;;
35462;SDS011;21578;47.892;9.970;2022-10-31T06:40:19;7.20;;;3.47;;
35462;SDS011;21578;47.892;9.970;2022-10-31T06:45:08;8.70;;;4.10;;
35462;SDS011;21578;47.892;9.970;2022-10-31T06:49:55;8.43;;;4.40;;
35462;SDS011;21578;47.892;9.970;2022-10-31T06:54:41;11.83;;;5.40;;
35462;SDS011;21578;47.892;9.970;2022-10-31T06:59:28;12.60;;;5.10;;
35462;SDS011;21578;47.892;9.970;2022-10-31T07:04:17;13.67;;;5.47;;
35462;SDS011;21578;47.892;9.970;2022-10-31T07:09:04;11.30;;;5.67;;
35462;SDS011;21578;47.892;9.970;2022-10-31T07:13:51;11.60;;;5.83;;
35462;SDS011;21578;47.892;9.970;2022-10-31T07:18:38;10.07;;;6.00;;
35462;SDS011;21578;47.892;9.970;2022-10-31T07:23:26;7.40;;;5.33;;
35462;SDS011;21578;47.892;9.970;2022-10-31T07:28:13;12.27;;;6.70;;
35462;SDS011;21578;47.892;9.970;2022-10-31T07:33:00;9.33;;;5.50;;
35462;SDS011;21578;47.892;9.970;2022-10-31T07:37:47;10.30;;;5.30;;
35462;SDS011;21578;47.892;9.970;2022-10-31T07:42:36;11.70;;;5.57;;
35462;SDS011;21578;47.892;9.970;2022-10-31T07:47:23;12.10;;;5.80;;
35462;SDS011;21578;47.892;9.970;2022-10-31T07:52:10;14.20;;;7.63;;
35462;SDS011;21578;47.892;9.970;2022-10-31T07:56:57;11.80;;;7.70;;
35462;SDS011;21578;47.892;9.970;2022-10-31T08:01:45;11.20;;;5.70;;
35462;SDS011;21578;47.892;9.970;2022-10-31T08:06:32;8.63;;;5.00;;
35462;SDS011;21578;47.892;9.970;2022-10-31T08:11:20;7.80;;;5.10;;
35462;SDS011;21578;47.892;9.970;2022-10-31T08:16:07;16.30;;;6.70;;
35462;SDS011;21578;47.892;9.970;2022-10-31T08:20:55;12.53;;;6.20;;
35462;SDS011;21578;47.892;9.970;2022-10-31T08:25:42;9.90;;;4.80;;
35462;SDS011;21578;47.892;9.970;2022-10-31T08:30:32;8.43;;;4.30;;
35462;SDS011;21578;47.892;9.970;2022-10-31T08:35:21;5.27;;;2.40;;
35462;SDS011;21578;47.892;9.970;2022-10-31T08:40:10;6.67;;;2.20;;
35462;SDS011;21578;47.892;9.970;2022-10-31T08:44:58;4.93;;;1.60;;
35462;SDS011;21578;47.892;9.970;2022-10-31T08:49:45;6.93;;;1.70;;
35462;SDS011;21578;47.892;9.970;2022-10-31T08:54:31;6.50;;;1.53;;
35462;SDS011;21578;47.892;9.970;2022-10-31T08:59:20;5.77;;;1.73;;
35462;SDS011;21578;47.892;9.970;2022-10-31T09:04:07;6.30;;;1.20;;
35462;SDS011;21578;47.892;9.970;2022-10-31T09:08:53;4.00;;;1.27;;
35462;SDS011;21578;47.892;9.970;2022-10-31T09:13:40;4.33;;;1.10;;
35462;SDS011;21578;47.892;9.970;2022-10-31T09:18:29;5.13;;;1.43;;
35462;SDS011;21578;47.892;9.970;2022-10-31T09:23:17;4.23;;;2.40;;
35462;SDS011;21578;47.892;9.970;2022-10-31T09:28:06;4.63;;;1.30;;
35462;SDS011;21578;47.892;9.970;2022-10-31T09:32:55;5.07;;;1.30;;
35462;SDS011;21578;47.892;9.970;2022-10-31T09:37:43;5.73;;;2.53;;
35462;SDS011;21578;47.892;9.970;2022-10-31T09:42:37;8.53;;;3.93;;
35462;SDS011;21578;47.892;9.970;2022-10-31T09:47:37;7.80;;;1.93;;
35462;SDS011;21578;47.892;9.970;2022-10-31T09:52:32;5.60;;;1.30;;
35462;SDS011;21578;47.892;9.970;2022-10-31T09:57:24;4.87;;;2.47;;
35462;SDS011;21578;47.892;9.970;2022-10-31T10:02:14;3.20;;;1.10;;
35462;SDS011;21578;47.892;9.970;2022-10-31T10:07:08;4.60;;;1.17;;
35462;SDS011;21578;47.892;9.970;2022-10-31T10:12:04;8.13;;;3.27;;
35462;SDS011;21578;47.892;9.970;2022-10-31T10:17:11;6.17;;;2.10;;
35462;SDS011;21578;47.892;9.970;2022-10-31T10:22:06;8.37;;;1.60;;
35462;SDS011;21578;47.892;9.970;2022-10-31T10:26:59;9.47;;;2.23;;
35462;SDS011;21578;47.892;9.970;2022-10-31T10:31:57;8.60;;;2.80;;
35462;SDS011;21578;47.892;9.970;2022-10-31T10:36:53;6.97;;;1.40;;
35462;SDS011;21578;47.892;9.970;2022-10-31T10:41:44;5.40;;;1.27;;
35462;SDS011;21578;47.892;9.970;2022-10-31T10:46:51;4.33;;;1.50;;
35462;SDS011;21578;47.892;9.970;2022-10-31T10:52:00;8.67;;;2.10;;
35462;SDS011;21578;47.892;9.970;2022-10-31T10:56:58;5.80;;;2.00;;
35462;SDS011;21578;47.892;9.970;2022-10-31T11:01:50;5.33;;;1.73;;
35462;SDS011;21578;47.892;9.970;2022-10-31T11:06:37;6.00;;;1.80;;
35462;SDS011;21578;47.892;9.970;2022-10-31T11:11:26;3.30;;;1.70;;
35462;SDS011;21578;47.892;9.970;2022-10-31T11:16:26;6.87;;;2.73;;
35462;SDS011;21578;47.892;9.970;2022-10-31T11:21:19;7.17;;;2.13;;
35462;SDS011;21578;47.892;9.970;2022-10-31T11:26:16;6.03;;;2.43;;
35462;SDS011;21578;47.892;9.970;2022-10-31T11:31:10;5.83;;;2.30;;
35462;SDS011;21578;47.892;9.970;2022-10-31T11:35:59;4.60;;;1.93;;
35462;SDS011;21578;47.892;9.970;2022-10-31T11:40:51;7.57;;;3.57;;
35462;SDS011;21578;47.892;9.970;2022-10-31T11:45:40;8.97;;;1.97;;
35462;SDS011;21578;47.892;9.970;2022-10-31T11:50:31;5.30;;;1.57;;
35462;SDS011;21578;47.892;9.970;2022-10-31T11:55:29;7.83;;;1.43;;
35462;SDS011;21578;47.892;9.970;2022-10-31T12:00:20;3.30;;;1.47;;
35462;SDS011;21578;47.892;9.970;2022-10-31T12:05:10;8.33;;;1.40;;
35462;SDS011;21578;47.892;9.970;2022-10-31T12:10:10;7.03;;;1.60;;
35462;SDS011;21578;47.892;9.970;2022-10-31T12:15:02;5.23;;;1.57;;
35462;SDS011;21578;47.892;9.970;2022-10-31T12:20:04;4.77;;;1.10;;
35462;SDS011;21578;47.892;9.970;2022-10-31T12:25:02;4.70;;;1.20;;
35462;SDS011;21578;47.892;9.970;2022-10-31T12:30:08;5.67;;;1.50;;
35462;SDS011;21578;47.892;9.970;2022-10-31T12:40:22;3.53;;;1.40;;
35462;SDS011;21578;47.892;9.970;2022-10-31T12:45:38;7.30;;;1.50;;
35462;SDS011;21578;47.892;9.970;2022-10-31T12:50:34;8.03;;;3.20;;
35462;SDS011;21578;47.892;9.970;2022-10-31T12:55:36;5.03;;;2.10;;
35462;SDS011;21578;47.892;9.970;2022-10-31T13:00:29;5.43;;;1.57;;
35462;SDS011;21578;47.892;9.970;2022-10-31T13:05:22;4.17;;;1.60;;
35462;SDS011;21578;47.892;9.970;2022-10-31T13:10:16;6.13;;;1.50;;
35462;SDS011;21578;47.892;9.970;2022-10-31T13:15:12;4.73;;;1.60;;
35462;SDS011;21578;47.892;9.970;2022-10-31T13:20:05;8.63;;;1.93;;
35462;SDS011;21578;47.892;9.970;2022-10-31T13:25:03;4.83;;;1.97;;
35462;SDS011;21578;47.892;9.970;2022-10-31T13:29:59;5.13;;;1.70;;
35462;SDS011;21578;47.892;9.970;2022-10-31T13:34:51;5.53;;;2.10;;
35462;SDS011;21578;47.892;9.970;2022-10-31T13:39:47;6.27;;;2.07;;
35462;SDS011;21578;47.892;9.970;2022-10-31T13:44:43;7.10;;;2.17;;
35462;SDS011;21578;47.892;9.970;2022-10-31T13:49:36;7.77;;;2.10;;
35462;SDS011;21578;47.892;9.970;2022-10-31T13:54:32;4.70;;;2.00;;
35462;SDS011;21578;47.892;9.970;2022-10-31T13:59:21;6.90;;;1.87;;
35462;SDS011;21578;47.892;9.970;2022-10-31T14:04:13;7.63;;;1.97;;
35462;SDS011;21578;47.892;9.970;2022-10-31T14:09:03;5.30;;;2.00;;
35462;SDS011;21578;47.892;9.970;2022-10-31T14:13:51;6.13;;;1.83;;
35462;SDS011;21578;47.892;9.970;2022-10-31T14:18:39;5.07;;;1.90;;
35462;SDS011;21578;47.892;9.970;2022-10-31T14:23:32;8.07;;;2.33;;
35462;SDS011;21578;47.892;9.970;2022-10-31T14:28:30;5.30;;;1.70;;
35462;SDS011;21578;47.892;9.970;2022-10-31T14:33:20;7.17;;;2.20;;
35462;SDS011;21578;47.892;9.970;2022-10-31T14:38:22;7.87;;;2.13;;
35462;SDS011;21578;47.892;9.970;2022-10-31T14:43:27;6.87;;;1.83;;
35462;SDS011;21578;47.892;9.970;2022-10-31T14:48:33;5.30;;;2.10;;
35462;SDS011;21578;47.892;9.970;2022-10-31T14:53:34;6.23;;;2.47;;
35462;SDS011;21578;47.892;9.970;2022-10-31T14:58:26;4.80;;;2.43;;
35462;SDS011;21578;47.892;9.970;2022-10-31T15:03:24;5.33;;;2.23;;
35462;SDS011;21578;47.892;9.970;2022-10-31T15:08:32;3.80;;;2.70;;
35462;SDS011;21578;47.892;9.970;2022-10-31T15:13:20;7.27;;;3.17;;
35462;SDS011;21578;47.892;9.970;2022-10-31T15:18:13;11.63;;;5.63;;
35462;SDS011;21578;47.892;9.970;2022-10-31T15:23:03;8.40;;;3.07;;
35462;SDS011;21578;47.892;9.970;2022-10-31T15:27:51;12.50;;;3.77;;
35462;SDS011;21578;47.892;9.970;2022-10-31T15:32:39;9.23;;;3.30;;
35462;SDS011;21578;47.892;9.970;2022-10-31T15:37:31;13.73;;;3.87;;
35462;SDS011;21578;47.892;9.970;2022-10-31T15:42:19;8.53;;;3.93;;
35462;SDS011;21578;47.892;9.970;2022-10-31T15:47:13;9.43;;;3.73;;
35462;SDS011;21578;47.892;9.970;2022-10-31T15:52:06;8.40;;;5.27;;
35462;SDS011;21578;47.892;9.970;2022-10-31T15:56:58;11.23;;;5.50;;
35462;SDS011;21578;47.892;9.970;2022-10-31T16:01:53;12.73;;;5.70;;
35462;SDS011;21578;47.892;9.970;2022-10-31T16:06:51;7.03;;;4.27;;
35462;SDS011;21578;47.892;9.970;2022-10-31T16:11:45;16.53;;;9.40;;
35462;SDS011;21578;47.892;9.970;2022-10-31T16:16:33;18.40;;;5.17;;
35462;SDS011;21578;47.892;9.970;2022-10-31T16:21:29;11.23;;;5.93;;
35462;SDS011;21578;47.892;9.970;2022-10-31T16:26:19;7.37;;;4.97;;
35462;SDS011;21578;47.892;9.970;2022-10-31T16:31:12;10.50;;;5.30;;
35462;SDS011;21578;47.892;9.970;2022-10-31T16:36:00;12.30;;;4.80;;
35462;SDS011;21578;47.892;9.970;2022-10-31T16:40:47;11.50;;;5.13;;
35462;SDS011;21578;47.892;9.970;2022-10-31T16:45:36;14.67;;;6.83;;
35462;SDS011;21578;47.892;9.970;2022-10-31T16:50:28;11.60;;;6.93;;
35462;SDS011;21578;47.892;9.970;2022-10-31T16:55:15;11.43;;;5.63;;
35462;SDS011;21578;47.892;9.970;2022-10-31T17:00:04;12.97;;;7.17;;
35462;SDS011;21578;47.892;9.970;2022-10-31T17:04:53;11.27;;;6.27;;
35462;SDS011;21578;47.892;9.970;2022-10-31T17:09:40;12.77;;;6.30;;
35462;SDS011;21578;47.892;9.970;2022-10-31T17:14:27;9.23;;;5.80;;
35462;SDS011;21578;47.892;9.970;2022-10-31T17:19:14;12.97;;;7.03;;
35462;SDS011;21578;47.892;9.970;2022-10-31T17:24:03;13.37;;;7.57;;
35462;SDS011;21578;47.892;9.970;2022-10-31T17:28:50;18.07;;;12.10;;
35462;SDS011;21578;47.892;9.970;2022-10-31T17:33:37;42.07;;;25.30;;
35462;SDS011;21578;47.892;9.970;2022-10-31T17:38:24;123.10;;;66.93;;
35462;SDS011;21578;47.892;9.970;2022-10-31T17:43:12;62.87;;;38.53;;
35462;SDS011;21578;47.892;9.970;2022-10-31T17:47:59;38.77;;;25.67;;
35462;SDS011;21578;47.892;9.970;2022-10-31T17:52:46;53.70;;;32.10;;
35462;SDS011;21578;47.892;9.970;2022-10-31T17:57:33;81.47;;;45.50;;
35462;SDS011;21578;47.892;9.970;2022-10-31T18:02:22;68.67;;;42.23;;
35462;SDS011;21578;47.892;9.970;2022-10-31T18:07:09;63.00;;;38.87;;
35462;SDS011;21578;47.892;9.970;2022-10-31T18:11:56;49.37;;;29.13;;
35462;SDS011;21578;47.892;9.970;2022-10-31T18:16:43;53.43;;;32.27;;
35462;SDS011;21578;47.892;9.970;2022-10-31T18:21:31;45.73;;;24.43;;
35462;SDS011;21578;47.892;9.970;2022-10-31T18:26:18;45.33;;;26.77;;
35462;SDS011;21578;47.892;9.970;2022-10-31T18:31:05;37.37;;;21.33;;
35462;SDS011;21578;47.892;9.970;2022-10-31T18:35:52;39.33;;;21.03;;
35462;SDS011;21578;47.892;9.970;2022-10-31T18:40:40;24.70;;;15.00;;
35462;SDS011;21578;47.892;9.970;2022-10-31T18:45:27;16.10;;;10.23;;
35462;SDS011;21578;47.892;9.970;2022-10-31T18:50:14;9.87;;;7.70;;
35462;SDS011;21578;47.892;9.970;2022-10-31T18:55:01;12.77;;;8.47;;
35462;SDS011;21578;47.892;9.970;2022-10-31T18:59:50;14.87;;;9.63;;
35462;SDS011;21578;47.892;9.970;2022-10-31T19:04:37;22.10;;;15.20;;
35462;SDS011;21578;47.892;9.970;2022-10-31T19:09:23;18.07;;;13.07;;
35462;SDS011;21578;47.892;9.970;2022-10-31T19:14:11;13.67;;;9.77;;
35462;SDS011;21578;47.892;9.970;2022-10-31T19:19:00;15.43;;;9.43;;
35462;SDS011;21578;47.892;9.970;2022-10-31T19:23:47;12.90;;;8.77;;
35462;SDS011;21578;47.892;9.970;2022-10-31T19:28:35;12.47;;;8.73;;
35462;SDS011;21578;47.892;9.970;2022-10-31T19:33:23;18.93;;;12.97;;
35462;SDS011;21578;47.892;9.970;2022-10-31T19:38:14;16.60;;;11.53;;
35462;SDS011;21578;47.892;9.970;2022-10-31T19:43:01;10.50;;;8.33;;
35462;SDS011;21578;47.892;9.970;2022-10-31T19:47:48;9.80;;;7.07;;
35462;SDS011;21578;47.892;9.970;2022-10-31T19:52:35;13.37;;;7.00;;
35462;SDS011;21578;47.892;9.970;2022-10-31T19:57:23;11.43;;;5.30;;
35462;SDS011;21578;47.892;9.970;2022-10-31T20:02:10;13.47;;;7.87;;
35462;SDS011;21578;47.892;9.970;2022-10-31T20:07:03;5.90;;;4.10;;
35462;SDS011;21578;47.892;9.970;2022-10-31T20:11:52;11.03;;;5.63;;
35462;SDS011;21578;47.892;9.970;2022-10-31T20:16:40;15.37;;;8.33;;
35462;SDS011;21578;47.892;9.970;2022-10-31T20:21:28;18.40;;;10.03;;
35462;SDS011;21578;47.892;9.970;2022-10-31T20:26:17;23.10;;;12.77;;
35462;SDS011;21578;47.892;9.970;2022-10-31T20:31:06;12.33;;;6.83;;
35462;SDS011;21578;47.892;9.970;2022-10-31T20:35:56;12.83;;;5.90;;
35462;SDS011;21578;47.892;9.970;2022-10-31T20:40:43;5.93;;;2.43;;
35462;SDS011;21578;47.892;9.970;2022-10-31T20:45:30;8.60;;;3.77;;
35462;SDS011;21578;47.892;9.970;2022-10-31T20:50:17;6.90;;;3.73;;
35462;SDS011;21578;47.892;9.970;2022-10-31T20:55:06;7.30;;;4.13;;
35462;SDS011;21578;47.892;9.970;2022-10-31T20:59:54;10.40;;;6.10;;
35462;SDS011;21578;47.892;9.970;2022-10-31T21:04:41;9.37;;;5.80;;
35462;SDS011;21578;47.892;9.970;2022-10-31T21:09:28;9.07;;;3.90;;
35462;SDS011;21578;47.892;9.970;2022-10-31T21:14:18;12.97;;;6.37;;
35462;SDS011;21578;47.892;9.970;2022-10-31T21:19:05;34.63;;;19.00;;
35462;SDS011;21578;47.892;9.970;2022-10-31T21:23:52;11.10;;;6.13;;
35462;SDS011;21578;47.892;9.970;2022-10-31T21:28:40;17.30;;;10.07;;
35462;SDS011;21578;47.892;9.970;2022-10-31T21:33:28;53.00;;;29.83;;
35462;SDS011;21578;47.892;9.970;2022-10-31T21:38:15;40.43;;;26.07;;
35462;SDS011;21578;47.892;9.970;2022-10-31T21:43:02;27.90;;;16.77;;
35462;SDS011;21578;47.892;9.970;2022-10-31T21:47:49;17.87;;;9.77;;
35462;SDS011;21578;47.892;9.970;2022-10-31T21:52:38;11.47;;;7.30;;
35462;SDS011;21578;47.892;9.970;2022-10-31T21:57:24;18.20;;;11.93;;
35462;SDS011;21578;47.892;9.970;2022-10-31T22:02:11;15.17;;;11.33;;
35462;SDS011;21578;47.892;9.970;2022-10-31T22:06:58;11.13;;;7.80;;
35462;SDS011;21578;47.892;9.970;2022-10-31T22:11:47;17.30;;;12.37;;
35462;SDS011;21578;47.892;9.970;2022-10-31T22:16:34;13.67;;;10.30;;
35462;SDS011;21578;47.892;9.970;2022-10-31T22:21:22;13.50;;;9.67;;
35462;SDS011;21578;47.892;9.970;2022-10-31T22:26:11;13.70;;;8.07;;
35462;SDS011;21578;47.892;9.970;2022-10-31T22:31:03;19.33;;;10.27;;
35462;SDS011;21578;47.892;9.970;2022-10-31T22:35:51;14.77;;;8.73;;
35462;SDS011;21578;47.892;9.970;2022-10-31T22:40:38;18.23;;;11.10;;
35462;SDS011;21578;47.892;9.970;2022-10-31T22:45:25;20.13;;;12.50;;
35462;SDS011;21578;47.892;9.970;2022-10-31T22:50:13;17.23;;;9.47;;
35462;SDS011;21578;47.892;9.970;2022-10-31T22:55:00;30.03;;;15.77;;
35462;SDS011;21578;47.892;9.970;2022-10-31T22:59:47;13.90;;;7.97;;
35462;SDS011;21578;47.892;9.970;2022-10-31T23:04:34;10.60;;;7.50;;
35462;SDS011;21578;47.892;9.970;2022-10-31T23:09:23;38.17;;;20.00;;
35462;SDS011;21578;47.892;9.970;2022-10-31T23:14:11;15.73;;;9.47;;
35462;SDS011;21578;47.892;9.970;2022-10-31T23:19:03;12.53;;;8.70;;
35462;SDS011;21578;47.892;9.970;2022-10-31T23:23:52;13.83;;;8.67;;
35462;SDS011;21578;47.892;9.970;2022-10-31T23:28:40;13.93;;;8.67;;
35462;SDS011;21578;47.892;9.970;2022-10-31T23:33:27;12.53;;;8.50;;
35462;SDS011;21578;47.892;9.970;2022-10-31T23:38:14;17.67;;;10.63;;
35462;SDS011;21578;47.892;9.970;2022-10-31T23:43:01;13.30;;;7.57;;
35462;SDS011;21578;47.892;9.970;2022-10-31T23:47:49;12.13;;;8.47;;
35462;SDS011;21578;47.892;9.970;2022-10-31T23:52:36;14.40;;;9.00;;
35462;SDS011;21578;47.892;9.970;2022-10-31T23:57:23;13.53;;;8.87;;
